Aurora, New Mexico
Current Conditions -  °F | °C
As of 4:53 PM on Thursday 27 Nov 2014 (Local Time) from KLVS Reporting Station
Clear Clear  
Wind Chill: 57°   Ceiling: Unl
Heat Index: 57°   Visibility: 10mi
Dew Point: 12°   Wind: 3mph
Humidity: 17%   Direction: 160°SSE
Pressure: 30.31"   Gusts: NA
Location:  36.0243°N, 105.005°W
Report Text: KLVS 272353Z AUTO 16003KT 10SM CLR 14/M11 A3031 RMK AO2 SLP212 T01391111 10194 20139 53001
Loading
Personal Weather Stations






























Interactive Weather Map New forecast layout! Learn more

10-Day Weather Forecast

Advertisements
Track Severe Weather on mobile